sensor_id;sensor_type;location;lat;lon;timestamp;noise_LAeq;noise_LA_min;noise_LA_max;noise_LA01;noise_LA95
49732;Laerm;43666;51.442;6.778;2024-01-15T00:00:28;36.94;30.89;39.70;;
49732;Laerm;43666;51.442;6.778;2024-01-15T00:02:57;36.87;29.92;40.03;;
49732;Laerm;43666;51.442;6.778;2024-01-15T00:05:23;36.85;26.91;39.70;;
49732;Laerm;43666;51.442;6.778;2024-01-15T00:07:48;36.87;29.92;39.81;;
49732;Laerm;43666;51.442;6.778;2024-01-15T00:10:14;36.81;30.89;40.03;;
49732;Laerm;43666;51.442;6.778;2024-01-15T00:12:39;36.93;29.92;40.13;;
49732;Laerm;43666;51.442;6.778;2024-01-15T00:15:05;36.90;30.89;40.23;;
49732;Laerm;43666;51.442;6.778;2024-01-15T00:17:32;36.90;31.68;39.81;;
49732;Laerm;43666;51.442;6.778;2024-01-15T00:19:58;36.94;29.92;39.81;;
49732;Laerm;43666;51.442;6.778;2024-01-15T00:22:26;36.87;30.89;40.23;;
49732;Laerm;43666;51.442;6.778;2024-01-15T00:24:52;36.87;31.33;40.23;;
49732;Laerm;43666;51.442;6.778;2024-01-15T00:27:18;36.89;29.92;40.33;;
49732;Laerm;43666;51.442;6.778;2024-01-15T00:29:45;36.97;30.89;40.13;;
49732;Laerm;43666;51.442;6.778;2024-01-15T00:32:11;36.92;31.68;40.03;;
49732;Laerm;43666;51.442;6.778;2024-01-15T00:34:37;36.92;30.89;39.92;;
49732;Laerm;43666;51.442;6.778;2024-01-15T00:37:03;36.96;30.89;39.81;;
49732;Laerm;43666;51.442;6.778;2024-01-15T00:39:29;36.98;31.68;40.13;;
49732;Laerm;43666;51.442;6.778;2024-01-15T00:41:55;37.01;29.92;40.13;;
49732;Laerm;43666;51.442;6.778;2024-01-15T00:44:21;36.95;29.92;40.33;;
49732;Laerm;43666;51.442;6.778;2024-01-15T00:46:47;36.91;30.89;40.23;;
49732;Laerm;43666;51.442;6.778;2024-01-15T00:49:14;36.95;29.92;40.03;;
49732;Laerm;43666;51.442;6.778;2024-01-15T00:51:40;36.90;28.67;40.23;;
49732;Laerm;43666;51.442;6.778;2024-01-15T00:54:05;36.91;30.89;40.13;;
49732;Laerm;43666;51.442;6.778;2024-01-15T00:56:32;36.87;29.92;40.13;;
49732;Laerm;43666;51.442;6.778;2024-01-15T00:58:58;36.89;28.67;39.81;;
49732;Laerm;43666;51.442;6.778;2024-01-15T01:01:24;37.07;29.92;40.62;;
49732;Laerm;43666;51.442;6.778;2024-01-15T01:03:50;37.17;31.68;40.53;;
49732;Laerm;43666;51.442;6.778;2024-01-15T01:06:15;37.04;29.92;40.13;;
49732;Laerm;43666;51.442;6.778;2024-01-15T01:08:41;37.07;28.67;40.43;;
49732;Laerm;43666;51.442;6.778;2024-01-15T01:11:07;37.06;30.89;40.23;;
49732;Laerm;43666;51.442;6.778;2024-01-15T01:13:32;36.93;28.67;39.81;;
49732;Laerm;43666;51.442;6.778;2024-01-15T01:15:59;37.07;30.89;40.23;;
49732;Laerm;43666;51.442;6.778;2024-01-15T01:18:24;36.93;29.92;39.81;;
49732;Laerm;43666;51.442;6.778;2024-01-15T01:20:50;37.14;31.33;40.23;;
49732;Laerm;43666;51.442;6.778;2024-01-15T01:23:17;37.09;30.89;40.71;;
49732;Laerm;43666;51.442;6.778;2024-01-15T01:25:43;36.88;32.35;39.70;;
49732;Laerm;43666;51.442;6.778;2024-01-15T01:28:08;37.02;30.89;40.33;;
49732;Laerm;43666;51.442;6.778;2024-01-15T01:30:35;37.09;29.92;40.71;;
49732;Laerm;43666;51.442;6.778;2024-01-15T01:33:01;37.04;29.92;40.13;;
49732;Laerm;43666;51.442;6.778;2024-01-15T01:35:27;37.01;30.89;40.62;;
49732;Laerm;43666;51.442;6.778;2024-01-15T01:37:53;37.07;29.92;40.62;;
49732;Laerm;43666;51.442;6.778;2024-01-15T01:40:19;37.03;30.89;39.92;;
49732;Laerm;43666;51.442;6.778;2024-01-15T01:42:45;37.01;30.89;39.92;;
49732;Laerm;43666;51.442;6.778;2024-01-15T01:45:11;36.99;29.92;40.13;;
49732;Laerm;43666;51.442;6.778;2024-01-15T01:47:37;36.99;30.89;40.33;;
49732;Laerm;43666;51.442;6.778;2024-01-15T01:50:03;36.99;31.68;40.33;;
49732;Laerm;43666;51.442;6.778;2024-01-15T01:52:28;37.03;30.89;40.13;;
49732;Laerm;43666;51.442;6.778;2024-01-15T01:54:54;36.98;30.89;40.03;;
49732;Laerm;43666;51.442;6.778;2024-01-15T01:57:21;36.95;30.89;40.03;;
49732;Laerm;43666;51.442;6.778;2024-01-15T01:59:47;37.03;29.92;40.13;;
49732;Laerm;43666;51.442;6.778;2024-01-15T02:02:13;37.01;30.89;40.27;;
49732;Laerm;43666;51.442;6.778;2024-01-15T02:04:39;36.92;32.35;40.03;;
49732;Laerm;43666;51.442;6.778;2024-01-15T02:07:05;36.95;28.67;40.03;;
49732;Laerm;43666;51.442;6.778;2024-01-15T02:09:31;36.93;31.68;40.13;;
49732;Laerm;43666;51.442;6.778;2024-01-15T02:11:57;36.97;30.89;40.80;;
49732;Laerm;43666;51.442;6.778;2024-01-15T02:14:23;36.96;28.67;39.92;;
49732;Laerm;43666;51.442;6.778;2024-01-15T02:16:49;36.94;29.57;39.81;;
49732;Laerm;43666;51.442;6.778;2024-01-15T02:19:15;37.00;30.89;40.13;;
49732;Laerm;43666;51.442;6.778;2024-01-15T02:21:42;37.06;31.68;39.92;;
49732;Laerm;43666;51.442;6.778;2024-01-15T02:24:10;37.04;31.68;39.92;;
49732;Laerm;43666;51.442;6.778;2024-01-15T02:26:37;36.99;31.68;39.92;;
49732;Laerm;43666;51.442;6.778;2024-01-15T02:29:04;37.00;30.89;40.13;;
49732;Laerm;43666;51.442;6.778;2024-01-15T02:31:30;37.02;29.92;40.03;;
49732;Laerm;43666;51.442;6.778;2024-01-15T02:33:57;37.01;31.68;40.53;;
49732;Laerm;43666;51.442;6.778;2024-01-15T02:36:24;37.00;30.89;40.13;;
49732;Laerm;43666;51.442;6.778;2024-01-15T02:38:52;37.00;30.89;40.33;;
49732;Laerm;43666;51.442;6.778;2024-01-15T02:41:17;36.96;31.68;39.92;;
49732;Laerm;43666;51.442;6.778;2024-01-15T02:43:44;37.06;30.89;40.89;;
49732;Laerm;43666;51.442;6.778;2024-01-15T02:46:09;36.98;29.92;39.92;;
49732;Laerm;43666;51.442;6.778;2024-01-15T02:48:35;37.15;31.68;40.23;;
49732;Laerm;43666;51.442;6.778;2024-01-15T02:51:01;36.97;30.89;39.70;;
49732;Laerm;43666;51.442;6.778;2024-01-15T02:53:27;36.94;29.92;40.13;;
49732;Laerm;43666;51.442;6.778;2024-01-15T02:55:53;37.02;31.68;39.81;;
49732;Laerm;43666;51.442;6.778;2024-01-15T02:58:18;37.25;29.92;40.33;;
49732;Laerm;43666;51.442;6.778;2024-01-15T03:00:45;37.19;31.68;39.92;;
49732;Laerm;43666;51.442;6.778;2024-01-15T03:03:11;37.16;30.89;39.92;;
49732;Laerm;43666;51.442;6.778;2024-01-15T03:05:37;37.19;30.89;40.13;;
49732;Laerm;43666;51.442;6.778;2024-01-15T03:08:03;37.23;30.89;40.33;;
49732;Laerm;43666;51.442;6.778;2024-01-15T03:10:29;37.29;32.35;40.23;;
49732;Laerm;43666;51.442;6.778;2024-01-15T03:12:55;37.27;30.89;40.23;;
49732;Laerm;43666;51.442;6.778;2024-01-15T03:15:20;37.26;31.68;40.13;;
49732;Laerm;43666;51.442;6.778;2024-01-15T03:17:46;37.18;31.68;40.23;;
49732;Laerm;43666;51.442;6.778;2024-01-15T03:20:12;37.16;30.89;40.13;;
49732;Laerm;43666;51.442;6.778;2024-01-15T03:22:38;37.23;29.92;40.62;;
49732;Laerm;43666;51.442;6.778;2024-01-15T03:25:04;37.13;30.89;40.13;;
49732;Laerm;43666;51.442;6.778;2024-01-15T03:27:30;37.00;30.89;39.81;;
49732;Laerm;43666;51.442;6.778;2024-01-15T03:29:55;37.00;31.68;40.03;;
49732;Laerm;43666;51.442;6.778;2024-01-15T03:32:22;37.06;30.89;40.03;;
49732;Laerm;43666;51.442;6.778;2024-01-15T03:34:48;37.18;32.93;40.23;;
49732;Laerm;43666;51.442;6.778;2024-01-15T03:37:13;37.14;31.68;39.81;;
49732;Laerm;43666;51.442;6.778;2024-01-15T03:39:39;37.17;31.68;40.62;;
49732;Laerm;43666;51.442;6.778;2024-01-15T03:42:05;37.16;31.68;40.13;;
49732;Laerm;43666;51.442;6.778;2024-01-15T03:44:32;37.14;31.33;40.03;;
49732;Laerm;43666;51.442;6.778;2024-01-15T03:46:57;37.15;30.89;40.03;;
49732;Laerm;43666;51.442;6.778;2024-01-15T03:49:24;37.14;31.68;40.23;;
49732;Laerm;43666;51.442;6.778;2024-01-15T03:51:50;37.06;30.89;40.27;;
49732;Laerm;43666;51.442;6.778;2024-01-15T03:54:16;37.19;32.35;40.03;;
49732;Laerm;43666;51.442;6.778;2024-01-15T03:56:42;37.16;31.68;39.92;;
49732;Laerm;43666;51.442;6.778;2024-01-15T03:59:08;37.18;29.92;40.23;;
49732;Laerm;43666;51.442;6.778;2024-01-15T04:01:35;37.14;32.35;40.13;;
49732;Laerm;43666;51.442;6.778;2024-01-15T04:04:02;37.11;30.89;39.92;;
49732;Laerm;43666;51.442;6.778;2024-01-15T04:06:28;37.12;31.68;40.03;;
49732;Laerm;43666;51.442;6.778;2024-01-15T04:08:54;37.10;31.68;40.23;;
49732;Laerm;43666;51.442;6.778;2024-01-15T04:11:20;37.18;30.89;40.53;;
49732;Laerm;43666;51.442;6.778;2024-01-15T04:13:46;37.14;32.35;39.92;;
49732;Laerm;43666;51.442;6.778;2024-01-15T04:16:11;37.16;30.54;40.03;;
49732;Laerm;43666;51.442;6.778;2024-01-15T04:18:37;37.16;32.35;40.03;;
49732;Laerm;43666;51.442;6.778;2024-01-15T04:21:06;37.12;31.68;40.23;;
49732;Laerm;43666;51.442;6.778;2024-01-15T04:23:32;37.08;30.89;40.13;;
49732;Laerm;43666;51.442;6.778;2024-01-15T04:25:58;37.15;31.68;39.92;;
49732;Laerm;43666;51.442;6.778;2024-01-15T04:28:24;37.16;32.35;40.33;;
49732;Laerm;43666;51.442;6.778;2024-01-15T04:30:49;37.08;29.92;39.81;;
49732;Laerm;43666;51.442;6.778;2024-01-15T04:33:15;37.04;30.89;40.23;;
49732;Laerm;43666;51.442;6.778;2024-01-15T04:35:41;37.16;30.89;40.13;;
49732;Laerm;43666;51.442;6.778;2024-01-15T04:38:07;37.07;31.68;40.23;;
49732;Laerm;43666;51.442;6.778;2024-01-15T04:40:33;37.05;32.35;40.13;;
49732;Laerm;43666;51.442;6.778;2024-01-15T04:42:59;37.12;31.68;39.92;;
49732;Laerm;43666;51.442;6.778;2024-01-15T04:45:25;37.11;31.68;40.33;;
49732;Laerm;43666;51.442;6.778;2024-01-15T04:47:54;37.13;29.92;40.13;;
49732;Laerm;43666;51.442;6.778;2024-01-15T04:50:22;37.09;29.92;40.23;;
49732;Laerm;43666;51.442;6.778;2024-01-15T04:52:48;37.11;31.68;40.33;;
49732;Laerm;43666;51.442;6.778;2024-01-15T04:55:14;37.06;28.67;39.81;;
49732;Laerm;43666;51.442;6.778;2024-01-15T04:57:40;37.06;30.89;40.08;;
49732;Laerm;43666;51.442;6.778;2024-01-15T05:00:06;37.06;31.68;39.92;;
49732;Laerm;43666;51.442;6.778;2024-01-15T05:02:32;37.08;31.68;40.89;;
49732;Laerm;43666;51.442;6.778;2024-01-15T05:04:58;37.07;32.35;39.92;;
49732;Laerm;43666;51.442;6.778;2024-01-15T05:07:24;37.02;28.67;39.92;;
49732;Laerm;43666;51.442;6.778;2024-01-15T05:09:49;37.04;32.35;40.03;;
49732;Laerm;43666;51.442;6.778;2024-01-15T05:12:15;37.13;32.00;39.92;;
49732;Laerm;43666;51.442;6.778;2024-01-15T05:14:41;36.98;32.93;39.92;;
49732;Laerm;43666;51.442;6.778;2024-01-15T05:17:07;37.01;31.68;40.33;;
49732;Laerm;43666;51.442;6.778;2024-01-15T05:19:32;37.03;31.68;40.03;;
49732;Laerm;43666;51.442;6.778;2024-01-15T05:21:58;37.02;31.68;39.81;;
49732;Laerm;43666;51.442;6.778;2024-01-15T05:24:24;37.07;29.92;40.13;;
49732;Laerm;43666;51.442;6.778;2024-01-15T05:26:51;37.00;30.89;40.33;;
49732;Laerm;43666;51.442;6.778;2024-01-15T05:29:18;37.05;31.68;39.92;;
49732;Laerm;43666;51.442;6.778;2024-01-15T05:31:44;37.08;29.92;40.03;;
49732;Laerm;43666;51.442;6.778;2024-01-15T05:34:10;37.06;31.68;40.03;;
49732;Laerm;43666;51.442;6.778;2024-01-15T05:36:35;37.06;31.68;40.62;;
49732;Laerm;43666;51.442;6.778;2024-01-15T05:39:01;37.06;32.35;39.92;;
49732;Laerm;43666;51.442;6.778;2024-01-15T05:41:29;37.03;32.93;39.70;;
49732;Laerm;43666;51.442;6.778;2024-01-15T05:43:54;37.05;30.89;39.92;;
49732;Laerm;43666;51.442;6.778;2024-01-15T05:46:20;37.07;31.68;40.33;;
49732;Laerm;43666;51.442;6.778;2024-01-15T05:48:46;37.07;31.68;40.13;;
49732;Laerm;43666;51.442;6.778;2024-01-15T05:51:12;37.11;31.68;40.23;;
49732;Laerm;43666;51.442;6.778;2024-01-15T05:53:38;37.08;31.68;40.23;;
49732;Laerm;43666;51.442;6.778;2024-01-15T05:56:08;37.09;32.35;40.13;;
49732;Laerm;43666;51.442;6.778;2024-01-15T05:58:33;37.07;31.68;39.81;;
49732;Laerm;43666;51.442;6.778;2024-01-15T06:01:00;37.12;32.35;40.23;;
49732;Laerm;43666;51.442;6.778;2024-01-15T06:03:26;37.08;30.89;40.03;;
49732;Laerm;43666;51.442;6.778;2024-01-15T06:05:52;37.13;30.89;39.92;;
49732;Laerm;43666;51.442;6.778;2024-01-15T06:08:19;37.08;30.89;40.23;;
49732;Laerm;43666;51.442;6.778;2024-01-15T06:10:46;37.12;31.68;40.43;;
49732;Laerm;43666;51.442;6.778;2024-01-15T06:13:12;37.11;30.89;39.81;;
49732;Laerm;43666;51.442;6.778;2024-01-15T06:15:39;37.10;31.33;40.03;;
49732;Laerm;43666;51.442;6.778;2024-01-15T06:18:04;37.18;31.68;40.23;;
49732;Laerm;43666;51.442;6.778;2024-01-15T06:20:31;37.22;32.93;40.23;;
49732;Laerm;43666;51.442;6.778;2024-01-15T06:22:56;37.19;32.35;40.43;;
49732;Laerm;43666;51.442;6.778;2024-01-15T06:25:22;37.21;32.35;40.43;;
49732;Laerm;43666;51.442;6.778;2024-01-15T06:27:48;37.19;30.89;39.92;;
49732;Laerm;43666;51.442;6.778;2024-01-15T06:30:14;37.10;31.68;40.33;;
49732;Laerm;43666;51.442;6.778;2024-01-15T06:32:40;37.12;31.68;39.92;;
49732;Laerm;43666;51.442;6.778;2024-01-15T06:35:06;37.13;30.89;39.92;;
49732;Laerm;43666;51.442;6.778;2024-01-15T06:37:31;37.11;32.35;40.03;;
49732;Laerm;43666;51.442;6.778;2024-01-15T06:39:58;37.16;32.35;39.92;;
49732;Laerm;43666;51.442;6.778;2024-01-15T06:42:25;37.10;31.68;39.89;;
49732;Laerm;43666;51.442;6.778;2024-01-15T06:44:50;37.18;31.68;40.13;;
49732;Laerm;43666;51.442;6.778;2024-01-15T06:47:16;37.10;32.35;40.33;;
49732;Laerm;43666;51.442;6.778;2024-01-15T06:49:43;37.09;32.35;40.03;;
49732;Laerm;43666;51.442;6.778;2024-01-15T06:52:08;37.10;31.68;39.89;;
49732;Laerm;43666;51.442;6.778;2024-01-15T06:54:35;37.10;30.89;40.33;;
49732;Laerm;43666;51.442;6.778;2024-01-15T06:57:00;37.11;28.67;39.92;;
49732;Laerm;43666;51.442;6.778;2024-01-15T06:59:28;37.11;32.93;39.92;;
49732;Laerm;43666;51.442;6.778;2024-01-15T07:01:54;37.08;31.68;39.92;;
49732;Laerm;43666;51.442;6.778;2024-01-15T07:04:21;37.11;31.68;40.23;;
49732;Laerm;43666;51.442;6.778;2024-01-15T07:06:46;37.11;30.89;39.92;;
49732;Laerm;43666;51.442;6.778;2024-01-15T07:09:13;37.10;32.35;39.81;;
49732;Laerm;43666;51.442;6.778;2024-01-15T07:11:45;37.19;31.68;40.33;;
49732;Laerm;43666;51.442;6.778;2024-01-15T07:14:12;37.16;31.68;40.13;;
49732;Laerm;43666;51.442;6.778;2024-01-15T07:16:38;37.13;31.68;40.23;;
49732;Laerm;43666;51.442;6.778;2024-01-15T07:19:05;37.16;31.68;40.13;;
49732;Laerm;43666;51.442;6.778;2024-01-15T07:21:31;37.14;31.68;40.13;;
49732;Laerm;43666;51.442;6.778;2024-01-15T07:23:57;37.17;32.35;40.33;;
49732;Laerm;43666;51.442;6.778;2024-01-15T07:26:25;37.12;30.89;40.03;;
49732;Laerm;43666;51.442;6.778;2024-01-15T07:28:54;37.11;28.67;40.13;;
49732;Laerm;43666;51.442;6.778;2024-01-15T07:31:20;37.02;30.89;40.03;;
49732;Laerm;43666;51.442;6.778;2024-01-15T07:33:45;37.08;30.89;40.33;;
49732;Laerm;43666;51.442;6.778;2024-01-15T07:36:12;37.09;29.92;40.03;;
49732;Laerm;43666;51.442;6.778;2024-01-15T07:38:38;37.12;29.92;39.81;;
49732;Laerm;43666;51.442;6.778;2024-01-15T07:41:05;37.19;30.89;40.13;;
49732;Laerm;43666;51.442;6.778;2024-01-15T07:43:31;37.02;29.92;39.92;;
49732;Laerm;43666;51.442;6.778;2024-01-15T07:45:58;37.01;30.89;40.03;;
49732;Laerm;43666;51.442;6.778;2024-01-15T07:48:24;36.99;29.92;40.03;;
49732;Laerm;43666;51.442;6.778;2024-01-15T07:50:50;37.04;29.92;40.13;;
49732;Laerm;43666;51.442;6.778;2024-01-15T07:53:16;37.20;32.35;40.43;;
49732;Laerm;43666;51.442;6.778;2024-01-15T07:55:42;37.27;30.89;40.62;;
49732;Laerm;43666;51.442;6.778;2024-01-15T07:58:07;37.14;31.68;40.03;;
49732;Laerm;43666;51.442;6.778;2024-01-15T08:00:33;36.98;31.68;39.92;;
49732;Laerm;43666;51.442;6.778;2024-01-15T08:02:59;37.06;31.68;40.13;;
49732;Laerm;43666;51.442;6.778;2024-01-15T08:05:25;37.00;29.92;40.33;;
49732;Laerm;43666;51.442;6.778;2024-01-15T08:07:51;37.05;31.68;40.13;;
49732;Laerm;43666;51.442;6.778;2024-01-15T08:10:18;37.07;31.33;40.03;;
49732;Laerm;43666;51.442;6.778;2024-01-15T08:12:44;37.09;31.68;40.33;;
49732;Laerm;43666;51.442;6.778;2024-01-15T08:15:10;37.05;30.89;40.13;;
49732;Laerm;43666;51.442;6.778;2024-01-15T08:17:35;37.05;31.68;40.03;;
49732;Laerm;43666;51.442;6.778;2024-01-15T08:20:01;36.96;30.89;39.92;;
49732;Laerm;43666;51.442;6.778;2024-01-15T08:22:27;37.04;32.35;40.13;;
49732;Laerm;43666;51.442;6.778;2024-01-15T08:24:53;37.06;29.92;40.03;;
49732;Laerm;43666;51.442;6.778;2024-01-15T08:27:20;36.98;29.92;40.33;;
49732;Laerm;43666;51.442;6.778;2024-01-15T08:29:46;37.04;29.92;40.13;;
49732;Laerm;43666;51.442;6.778;2024-01-15T08:32:12;37.15;31.68;40.43;;
49732;Laerm;43666;51.442;6.778;2024-01-15T08:34:41;37.18;30.89;40.43;;
49732;Laerm;43666;51.442;6.778;2024-01-15T08:37:08;37.03;30.89;40.53;;
49732;Laerm;43666;51.442;6.778;2024-01-15T08:39:34;36.95;30.89;40.03;;
49732;Laerm;43666;51.442;6.778;2024-01-15T08:42:04;37.01;29.92;40.13;;
49732;Laerm;43666;51.442;6.778;2024-01-15T08:44:30;37.05;29.92;40.03;;
49732;Laerm;43666;51.442;6.778;2024-01-15T08:46:56;37.06;31.68;40.13;;
49732;Laerm;43666;51.442;6.778;2024-01-15T08:49:22;36.90;30.89;40.62;;
49732;Laerm;43666;51.442;6.778;2024-01-15T08:51:47;37.08;29.92;40.27;;
49732;Laerm;43666;51.442;6.778;2024-01-15T08:54:13;37.00;28.67;40.13;;
49732;Laerm;43666;51.442;6.778;2024-01-15T08:56:39;37.01;31.68;40.03;;
49732;Laerm;43666;51.442;6.778;2024-01-15T08:59:08;37.05;31.68;40.36;;
49732;Laerm;43666;51.442;6.778;2024-01-15T09:01:38;36.82;30.89;39.81;;
49732;Laerm;43666;51.442;6.778;2024-01-15T09:04:05;36.84;29.92;39.68;;
49732;Laerm;43666;51.442;6.778;2024-01-15T09:06:31;36.90;30.89;40.33;;
49732;Laerm;43666;51.442;6.778;2024-01-15T09:08:58;36.75;29.92;40.03;;
49732;Laerm;43666;51.442;6.778;2024-01-15T09:11:24;36.70;30.89;39.70;;
49732;Laerm;43666;51.442;6.778;2024-01-15T09:13:50;36.72;29.92;39.81;;
49732;Laerm;43666;51.442;6.778;2024-01-15T09:16:18;36.76;30.89;39.46;;
49732;Laerm;43666;51.442;6.778;2024-01-15T09:18:43;36.69;29.92;40.03;;
49732;Laerm;43666;51.442;6.778;2024-01-15T09:21:09;36.81;29.92;40.23;;
49732;Laerm;43666;51.442;6.778;2024-01-15T09:23:34;36.83;30.89;39.81;;
49732;Laerm;43666;51.442;6.778;2024-01-15T09:26:01;36.99;29.92;40.13;;
49732;Laerm;43666;51.442;6.778;2024-01-15T09:28:28;36.96;29.92;40.43;;
49732;Laerm;43666;51.442;6.778;2024-01-15T09:30:54;36.95;31.68;39.92;;
49732;Laerm;43666;51.442;6.778;2024-01-15T09:33:19;37.02;29.92;40.03;;
49732;Laerm;43666;51.442;6.778;2024-01-15T09:35:45;36.96;29.92;40.13;;
49732;Laerm;43666;51.442;6.778;2024-01-15T09:38:11;36.99;29.92;40.62;;
49732;Laerm;43666;51.442;6.778;2024-01-15T09:40:36;36.96;30.89;40.43;;
49732;Laerm;43666;51.442;6.778;2024-01-15T09:43:03;36.93;29.92;40.13;;
49732;Laerm;43666;51.442;6.778;2024-01-15T09:45:30;37.04;30.89;40.43;;
49732;Laerm;43666;51.442;6.778;2024-01-15T09:47:56;37.03;31.68;40.13;;
49732;Laerm;43666;51.442;6.778;2024-01-15T09:50:22;36.95;30.54;40.43;;
49732;Laerm;43666;51.442;6.778;2024-01-15T09:52:48;36.98;32.35;40.13;;
49732;Laerm;43666;51.442;6.778;2024-01-15T09:55:14;37.04;30.89;39.92;;
49732;Laerm;43666;51.442;6.778;2024-01-15T09:57:41;36.94;30.89;40.43;;
49732;Laerm;43666;51.442;6.778;2024-01-15T10:00:08;37.01;28.67;40.33;;
49732;Laerm;43666;51.442;6.778;2024-01-15T10:02:37;37.04;29.92;40.43;;
49732;Laerm;43666;51.442;6.778;2024-01-15T10:05:03;37.03;30.89;40.13;;
49732;Laerm;43666;51.442;6.778;2024-01-15T10:07:29;37.08;30.89;40.23;;
49732;Laerm;43666;51.442;6.778;2024-01-15T10:09:55;37.00;31.68;40.53;;
49732;Laerm;43666;51.442;6.778;2024-01-15T10:12:22;37.03;30.89;40.13;;
49732;Laerm;43666;51.442;6.778;2024-01-15T10:14:50;37.17;30.89;40.43;;
49732;Laerm;43666;51.442;6.778;2024-01-15T10:17:17;37.04;29.92;40.71;;
49732;Laerm;43666;51.442;6.778;2024-01-15T10:19:44;37.15;31.68;40.23;;
49732;Laerm;43666;51.442;6.778;2024-01-15T10:22:10;36.94;29.92;39.81;;
49732;Laerm;43666;51.442;6.778;2024-01-15T10:24:36;36.93;30.89;40.03;;
49732;Laerm;43666;51.442;6.778;2024-01-15T10:27:06;37.00;30.89;40.33;;
49732;Laerm;43666;51.442;6.778;2024-01-15T10:29:33;36.98;30.89;40.13;;
49732;Laerm;43666;51.442;6.778;2024-01-15T10:31:59;37.03;31.68;40.03;;
49732;Laerm;43666;51.442;6.778;2024-01-15T10:34:26;37.10;30.89;40.03;;
49732;Laerm;43666;51.442;6.778;2024-01-15T10:36:52;37.03;31.68;40.03;;
49732;Laerm;43666;51.442;6.778;2024-01-15T10:39:22;37.02;29.57;39.81;;
49732;Laerm;43666;51.442;6.778;2024-01-15T10:41:48;37.08;30.89;40.33;;
49732;Laerm;43666;51.442;6.778;2024-01-15T10:44:14;37.00;29.92;40.43;;
49732;Laerm;43666;51.442;6.778;2024-01-15T10:46:41;37.07;30.89;40.13;;
49732;Laerm;43666;51.442;6.778;2024-01-15T10:49:07;37.07;32.35;40.03;;
49732;Laerm;43666;51.442;6.778;2024-01-15T10:51:33;37.14;30.89;40.89;;
49732;Laerm;43666;51.442;6.778;2024-01-15T10:53:59;37.16;32.35;40.13;;
49732;Laerm;43666;51.442;6.778;2024-01-15T10:56:25;37.12;30.89;40.43;;
49732;Laerm;43666;51.442;6.778;2024-01-15T10:58:54;37.09;30.89;40.13;;
49732;Laerm;43666;51.442;6.778;2024-01-15T11:01:20;37.15;31.68;40.43;;
49732;Laerm;43666;51.442;6.778;2024-01-15T11:03:46;37.12;31.68;39.81;;
49732;Laerm;43666;51.442;6.778;2024-01-15T11:06:18;37.08;31.33;40.13;;
49732;Laerm;43666;51.442;6.778;2024-01-15T11:08:51;37.18;30.89;40.13;;
49732;Laerm;43666;51.442;6.778;2024-01-15T11:11:18;37.21;31.68;40.23;;
49732;Laerm;43666;51.442;6.778;2024-01-15T11:13:46;37.19;28.67;40.13;;
49732;Laerm;43666;51.442;6.778;2024-01-15T11:16:13;37.15;32.35;40.71;;
49732;Laerm;43666;51.442;6.778;2024-01-15T11:18:43;37.07;29.92;40.13;;
49732;Laerm;43666;51.442;6.778;2024-01-15T11:23:51;37.21;29.92;40.13;;
49732;Laerm;43666;51.442;6.778;2024-01-15T11:26:30;37.19;29.92;40.03;;
49732;Laerm;43666;51.442;6.778;2024-01-15T11:28:58;37.11;32.35;39.92;;
49732;Laerm;43666;51.442;6.778;2024-01-15T11:31:56;37.13;32.35;40.13;;
49732;Laerm;43666;51.442;6.778;2024-01-15T11:34:13;37.17;31.68;39.92;;
49732;Laerm;43666;51.442;6.778;2024-01-15T11:41:54;37.19;31.68;40.03;;
49732;Laerm;43666;51.442;6.778;2024-01-15T11:44:21;37.27;32.35;40.33;;
49732;Laerm;43666;51.442;6.778;2024-01-15T11:47:03;37.17;31.68;40.13;;
49732;Laerm;43666;51.442;6.778;2024-01-15T11:49:57;37.20;30.89;40.13;;
49732;Laerm;43666;51.442;6.778;2024-01-15T11:52:24;37.22;32.35;40.03;;
49732;Laerm;43666;51.442;6.778;2024-01-15T11:55:05;37.18;31.68;40.23;;
49732;Laerm;43666;51.442;6.778;2024-01-15T11:57:42;37.20;32.35;40.03;;
49732;Laerm;43666;51.442;6.778;2024-01-15T12:00:10;37.17;31.68;40.13;;
49732;Laerm;43666;51.442;6.778;2024-01-15T12:02:44;37.29;30.89;40.43;;
49732;Laerm;43666;51.442;6.778;2024-01-15T12:05:14;37.32;31.68;40.23;;
49732;Laerm;43666;51.442;6.778;2024-01-15T12:07:40;37.22;32.93;40.23;;
49732;Laerm;43666;51.442;6.778;2024-01-15T12:10:08;37.30;32.93;40.03;;
49732;Laerm;43666;51.442;6.778;2024-01-15T12:12:39;37.25;32.35;40.33;;
49732;Laerm;43666;51.442;6.778;2024-01-15T12:15:10;37.22;32.93;40.53;;
49732;Laerm;43666;51.442;6.778;2024-01-15T12:17:37;37.38;32.93;40.23;;
49732;Laerm;43666;51.442;6.778;2024-01-15T12:20:05;37.28;32.35;40.13;;
49732;Laerm;43666;51.442;6.778;2024-01-15T12:22:33;37.38;32.35;40.33;;
49732;Laerm;43666;51.442;6.778;2024-01-15T12:24:59;37.38;32.93;40.33;;
49732;Laerm;43666;51.442;6.778;2024-01-15T12:27:25;37.43;32.35;40.23;;
49732;Laerm;43666;51.442;6.778;2024-01-15T12:29:55;37.40;32.35;40.13;;
49732;Laerm;43666;51.442;6.778;2024-01-15T12:32:24;37.45;32.35;40.43;;
49732;Laerm;43666;51.442;6.778;2024-01-15T12:34:50;37.44;30.89;39.92;;
49732;Laerm;43666;51.442;6.778;2024-01-15T12:37:17;37.40;32.93;41.22;;
49732;Laerm;43666;51.442;6.778;2024-01-15T12:39:43;37.39;32.93;40.13;;
49732;Laerm;43666;51.442;6.778;2024-01-15T12:42:10;37.36;32.93;40.33;;
49732;Laerm;43666;51.442;6.778;2024-01-15T12:44:36;37.30;32.35;40.23;;
49732;Laerm;43666;51.442;6.778;2024-01-15T12:47:04;37.31;30.89;40.62;;
49732;Laerm;43666;51.442;6.778;2024-01-15T12:49:30;37.30;32.93;40.45;;
49732;Laerm;43666;51.442;6.778;2024-01-15T12:51:57;37.31;32.93;39.81;;
49732;Laerm;43666;51.442;6.778;2024-01-15T12:54:23;37.28;32.35;39.92;;
49732;Laerm;43666;51.442;6.778;2024-01-15T12:56:49;37.31;33.44;40.23;;
49732;Laerm;43666;51.442;6.778;2024-01-15T12:59:16;37.30;32.93;40.53;;
49732;Laerm;43666;51.442;6.778;2024-01-15T13:01:42;37.32;32.93;40.80;;
49732;Laerm;43666;51.442;6.778;2024-01-15T13:04:09;37.30;32.93;40.23;;
49732;Laerm;43666;51.442;6.778;2024-01-15T13:06:36;37.31;32.93;40.62;;
49732;Laerm;43666;51.442;6.778;2024-01-15T13:09:05;37.28;31.68;40.13;;
49732;Laerm;43666;51.442;6.778;2024-01-15T13:11:32;37.30;32.35;40.23;;
49732;Laerm;43666;51.442;6.778;2024-01-15T13:13:59;37.25;32.93;40.03;;
49732;Laerm;43666;51.442;6.778;2024-01-15T13:16:26;37.25;33.44;40.03;;
49732;Laerm;43666;51.442;6.778;2024-01-15T13:18:57;37.28;32.35;39.92;;
49732;Laerm;43666;51.442;6.778;2024-01-15T13:21:25;37.30;32.93;40.43;;
49732;Laerm;43666;51.442;6.778;2024-01-15T13:23:51;37.30;32.93;41.06;;
49732;Laerm;43666;51.442;6.778;2024-01-15T13:26:17;37.35;32.93;40.23;;
49732;Laerm;43666;51.442;6.778;2024-01-15T13:28:45;37.36;32.93;40.23;;
49732;Laerm;43666;51.442;6.778;2024-01-15T13:31:11;37.32;32.35;40.23;;
49732;Laerm;43666;51.442;6.778;2024-01-15T13:33:38;37.30;31.68;40.33;;
49732;Laerm;43666;51.442;6.778;2024-01-15T13:36:04;37.34;32.35;40.23;;
49732;Laerm;43666;51.442;6.778;2024-01-15T13:38:33;37.31;32.58;40.13;;
49732;Laerm;43666;51.442;6.778;2024-01-15T13:41:03;37.29;33.44;40.03;;
49732;Laerm;43666;51.442;6.778;2024-01-15T13:43:29;37.27;32.35;40.13;;
49732;Laerm;43666;51.442;6.778;2024-01-15T13:45:55;37.31;33.44;40.33;;
49732;Laerm;43666;51.442;6.778;2024-01-15T13:48:21;37.32;32.93;40.33;;